createdAt,value
2018-05-12T00:00:59.310Z,6.03
2018-05-12T00:03:26.709Z,16.73
2018-05-12T00:05:54.305Z,11.83
2018-05-12T00:08:21.609Z,14.40
2018-05-12T00:10:49.019Z,5.80
2018-05-12T00:13:16.470Z,5.87
2018-05-12T00:15:43.859Z,6.50
2018-05-12T00:18:11.350Z,12.10
2018-05-12T00:20:38.753Z,6.90
2018-05-12T00:23:06.146Z,6.60
2018-05-12T00:25:33.531Z,6.90
2018-05-12T00:28:00.918Z,6.33
2018-05-12T00:30:28.313Z,11.80
2018-05-12T00:32:55.777Z,9.03
2018-05-12T00:35:23.181Z,7.20
2018-05-12T00:37:50.574Z,5.60
2018-05-12T00:40:18.055Z,9.17
2018-05-12T00:42:45.429Z,7.70
2018-05-12T00:45:12.862Z,8.37
2018-05-12T00:47:40.315Z,12.57
2018-05-12T00:50:07.714Z,6.93
2018-05-12T00:52:35.113Z,6.27
2018-05-12T00:55:02.502Z,6.80
2018-05-12T00:57:29.929Z,9.13
2018-05-12T00:59:57.335Z,7.37
2018-05-12T01:02:24.748Z,6.53
2018-05-12T01:04:52.169Z,6.47
2018-05-12T01:07:19.667Z,8.63
2018-05-12T01:09:47.048Z,10.80
2018-05-12T01:12:14.474Z,7.80
2018-05-12T01:14:41.948Z,7.07
2018-05-12T01:17:09.385Z,9.47
2018-05-12T01:19:36.861Z,10.10
2018-05-12T01:22:04.243Z,6.23
2018-05-12T01:24:31.657Z,13.10
2018-05-12T01:26:59.118Z,6.50
2018-05-12T01:29:26.503Z,9.07
2018-05-12T01:31:53.930Z,8.37
2018-05-12T01:34:21.318Z,6.13
2018-05-12T01:36:48.724Z,12.33
2018-05-12T01:39:16.117Z,10.97
2018-05-12T01:41:43.537Z,8.70
2018-05-12T01:44:10.995Z,6.63
2018-05-12T01:46:38.401Z,10.17
2018-05-12T01:49:05.793Z,10.73
2018-05-12T01:51:33.197Z,8.90
2018-05-12T01:54:00.596Z,21.63
2018-05-12T01:56:28.002Z,12.43
2018-05-12T01:58:55.389Z,8.93
2018-05-12T02:01:22.893Z,7.03
2018-05-12T02:03:50.284Z,14.30
2018-05-12T02:06:17.681Z,9.50
2018-05-12T02:08:45.074Z,8.63
2018-05-12T02:11:12.484Z,13.70
2018-05-12T02:13:39.905Z,10.83
2018-05-12T02:16:07.303Z,9.37
2018-05-12T02:18:34.781Z,17.90
2018-05-12T02:21:02.236Z,9.97
2018-05-12T02:23:29.697Z,10.50
2018-05-12T02:25:57.105Z,10.73
2018-05-12T02:28:24.538Z,16.57
2018-05-12T02:30:51.987Z,17.13
2018-05-12T02:33:19.369Z,9.73
2018-05-12T02:35:46.791Z,12.97
2018-05-12T02:38:14.235Z,8.87
2018-05-12T02:40:41.689Z,13.43
2018-05-12T02:43:09.160Z,11.53
2018-05-12T02:45:36.602Z,12.63
2018-05-12T02:48:03.991Z,13.87
2018-05-12T02:50:31.414Z,13.60
2018-05-12T02:52:58.808Z,10.03
2018-05-12T02:55:26.280Z,13.73
2018-05-12T02:57:53.721Z,12.70
2018-05-12T03:00:21.193Z,10.43
2018-05-12T03:02:48.584Z,9.93
2018-05-12T03:05:16.116Z,12.87
2018-05-12T03:07:43.518Z,14.30
2018-05-12T03:10:11.028Z,13.07
2018-05-12T03:12:38.423Z,14.17
2018-05-12T03:15:05.849Z,12.17
2018-05-12T03:17:33.296Z,15.20
2018-05-12T03:20:00.748Z,12.87
2018-05-12T03:22:28.153Z,12.07
2018-05-12T03:24:55.642Z,16.03
2018-05-12T03:27:23.042Z,11.30
2018-05-12T03:29:50.465Z,14.50
2018-05-12T03:32:17.925Z,16.30
2018-05-12T03:34:45.505Z,12.83
2018-05-12T03:37:12.903Z,12.10
2018-05-12T03:39:40.297Z,16.17
2018-05-12T03:42:07.798Z,14.17
2018-05-12T03:44:35.192Z,11.50
2018-05-12T03:47:03.362Z,12.70
2018-05-12T03:49:30.762Z,12.33
2018-05-12T03:51:58.169Z,14.20
2018-05-12T03:54:25.588Z,11.80
2018-05-12T03:56:53.030Z,16.13
2018-05-12T03:59:20.437Z,15.03
2018-05-12T04:01:47.937Z,13.40
2018-05-12T04:04:27.153Z,18.40
2018-05-12T04:07:06.589Z,16.83
2018-05-12T04:09:42.559Z,13.03
2018-05-12T04:12:29.761Z,17.63
2018-05-12T04:14:57.612Z,17.13
2018-05-12T04:17:25.085Z,13.57
2018-05-12T04:19:52.913Z,12.87
2018-05-12T04:22:20.316Z,16.63
2018-05-12T04:24:47.711Z,12.90
2018-05-12T04:27:15.112Z,17.90
2018-05-12T04:29:42.533Z,12.77
2018-05-12T04:32:09.945Z,24.03
2018-05-12T04:34:37.454Z,12.90
2018-05-12T04:37:04.929Z,20.00
2018-05-12T04:39:32.326Z,17.53
2018-05-12T04:41:59.752Z,15.67
2018-05-12T04:44:27.143Z,20.80
2018-05-12T04:46:54.549Z,12.87
2018-05-12T04:49:21.996Z,15.97
2018-05-12T04:51:49.449Z,19.40
2018-05-12T04:54:16.923Z,14.50
2018-05-12T04:56:44.305Z,12.90
2018-05-12T04:59:11.842Z,18.57
2018-05-12T05:01:39.590Z,12.27
2018-05-12T05:04:07.045Z,13.27
2018-05-12T05:06:34.496Z,14.13
2018-05-12T05:09:01.910Z,13.97
2018-05-12T05:11:29.300Z,14.60
2018-05-12T05:13:56.709Z,16.93
2018-05-12T05:16:24.120Z,18.33
2018-05-12T05:18:51.520Z,17.67
2018-05-12T05:21:19.028Z,13.83
2018-05-12T05:23:46.421Z,14.97
2018-05-12T05:26:13.813Z,14.63
2018-05-12T05:28:41.302Z,12.80
2018-05-12T05:31:08.778Z,17.00
2018-05-12T05:33:36.199Z,14.87
2018-05-12T05:36:03.687Z,14.23
2018-05-12T05:38:31.087Z,15.00
2018-05-12T05:40:58.589Z,12.97
2018-05-12T05:43:26.075Z,12.80
2018-05-12T05:45:53.469Z,11.20
2018-05-12T05:48:20.872Z,12.90
2018-05-12T05:50:48.737Z,15.37
2018-05-12T05:53:16.141Z,14.93
2018-05-12T05:55:43.533Z,15.70
2018-05-12T05:58:11.004Z,12.70
2018-05-12T06:00:38.456Z,12.80
2018-05-12T06:03:05.921Z,15.40
2018-05-12T06:05:33.320Z,13.50
2018-05-12T06:08:00.729Z,12.00
2018-05-12T06:10:28.129Z,15.40
2018-05-12T06:12:55.555Z,10.97
2018-05-12T06:15:22.990Z,11.23
2018-05-12T06:17:50.392Z,11.10
2018-05-12T06:20:17.817Z,10.00
2018-05-12T06:22:45.270Z,11.93
2018-05-12T06:25:12.660Z,13.23
2018-05-12T06:27:40.065Z,10.90
2018-05-12T06:30:07.537Z,19.00
2018-05-12T06:32:34.957Z,11.90
2018-05-12T06:35:02.344Z,10.83
2018-05-12T06:37:29.797Z,12.33
2018-05-12T06:39:57.201Z,20.37
2018-05-12T06:42:24.609Z,19.93
2018-05-12T06:44:52.021Z,11.90
2018-05-12T06:47:19.422Z,9.80
2018-05-12T06:49:46.873Z,14.40
2018-05-12T06:52:14.328Z,8.57
2018-05-12T06:54:41.729Z,10.17
2018-05-12T06:57:09.121Z,10.40
2018-05-12T06:59:36.611Z,7.73
2018-05-12T07:02:03.996Z,15.03
2018-05-12T07:04:31.405Z,11.00
2018-05-12T07:06:58.793Z,10.00
2018-05-12T07:09:26.190Z,9.57
2018-05-12T07:11:53.577Z,12.00
2018-05-12T07:14:20.965Z,8.43
2018-05-12T07:16:48.356Z,11.07
2018-05-12T07:19:15.766Z,17.17
2018-05-12T07:21:43.188Z,9.30
2018-05-12T07:24:11.572Z,14.40
2018-05-12T07:26:38.970Z,7.50
2018-05-12T07:29:06.361Z,8.00
2018-05-12T07:31:33.848Z,10.43
2018-05-12T07:34:01.237Z,8.07
2018-05-12T07:36:28.656Z,9.20
2018-05-12T07:38:56.122Z,13.57
2018-05-12T07:41:23.505Z,9.60
2018-05-12T07:43:50.903Z,5.93
2018-05-12T07:46:18.406Z,8.23
2018-05-12T07:48:45.795Z,7.23
2018-05-12T07:51:13.185Z,9.60
2018-05-12T07:53:40.674Z,10.83
2018-05-12T07:56:08.045Z,8.40
2018-05-12T07:58:35.470Z,12.27
2018-05-12T08:01:02.879Z,12.00
2018-05-12T08:03:30.298Z,10.20
2018-05-12T08:05:57.755Z,7.33
2018-05-12T08:08:25.137Z,12.43
2018-05-12T08:10:52.525Z,11.10
2018-05-12T08:13:19.919Z,7.37
2018-05-12T08:15:47.308Z,11.47
2018-05-12T08:18:14.716Z,16.03
2018-05-12T08:20:42.113Z,9.43
2018-05-12T08:23:09.506Z,9.83
2018-05-12T08:25:36.885Z,8.00
2018-05-12T08:28:04.291Z,13.30
2018-05-12T08:30:31.698Z,7.03
2018-05-12T08:32:59.149Z,9.83
2018-05-12T08:35:26.546Z,7.70
2018-05-12T08:37:53.978Z,10.10
2018-05-12T08:40:21.485Z,15.93
2018-05-12T08:42:48.781Z,10.50
2018-05-12T08:45:16.176Z,9.50
2018-05-12T08:47:43.604Z,20.50
2018-05-12T08:50:11.055Z,13.00
2018-05-12T08:52:38.457Z,11.83
2018-05-12T08:55:05.913Z,11.90
2018-05-12T08:57:33.302Z,8.73
2018-05-12T09:00:00.698Z,9.47
2018-05-12T09:02:28.105Z,13.13
2018-05-12T09:04:55.501Z,11.90
2018-05-12T09:07:22.881Z,9.33
2018-05-12T09:09:50.289Z,10.17
2018-05-12T09:12:17.676Z,10.40
2018-05-12T09:14:45.073Z,16.10
2018-05-12T09:17:12.561Z,12.33
2018-05-12T09:19:39.972Z,18.00
2018-05-12T09:22:07.365Z,16.57
2018-05-12T09:24:34.832Z,9.57
2018-05-12T09:27:02.292Z,6.77
2018-05-12T09:29:29.689Z,12.33
2018-05-12T09:31:57.109Z,12.70
2018-05-12T09:34:24.505Z,7.47
2018-05-12T09:36:51.900Z,5.60
2018-05-12T09:39:19.288Z,3.93
2018-05-12T09:41:46.677Z,8.10
2018-05-12T09:44:14.069Z,3.80
2018-05-12T09:46:41.457Z,6.57
2018-05-12T09:49:08.854Z,10.30
2018-05-12T09:51:36.350Z,3.50
2018-05-12T09:54:03.810Z,9.07
2018-05-12T09:56:31.207Z,17.93
2018-05-12T09:58:58.601Z,6.10
2018-05-12T10:01:25.987Z,3.40
2018-05-12T10:03:53.380Z,12.40
2018-05-12T10:06:20.776Z,3.20
2018-05-12T10:08:48.162Z,4.60
2018-05-12T10:11:15.592Z,3.73
2018-05-12T10:13:42.985Z,5.97
2018-05-12T10:16:10.373Z,7.00
2018-05-12T10:18:37.757Z,4.40
2018-05-12T10:21:05.156Z,6.50
2018-05-12T10:23:32.577Z,4.30
2018-05-12T10:26:00.038Z,3.60
2018-05-12T10:28:27.499Z,7.73
2018-05-12T10:30:54.888Z,4.50
2018-05-12T10:33:22.274Z,7.10
2018-05-12T10:35:49.765Z,3.60
2018-05-12T10:38:17.153Z,4.07
2018-05-12T10:40:44.606Z,10.13
2018-05-12T10:43:11.995Z,3.70
2018-05-12T10:45:39.385Z,6.17
2018-05-12T10:48:06.965Z,9.60
2018-05-12T10:50:34.356Z,11.70
2018-05-12T10:53:01.752Z,9.83
2018-05-12T10:55:29.221Z,4.50
2018-05-12T10:57:56.606Z,5.23
2018-05-12T11:00:24.002Z,9.63
2018-05-12T11:02:51.492Z,4.10
2018-05-12T11:05:18.892Z,9.60
2018-05-12T11:07:46.304Z,7.33
2018-05-12T11:10:13.757Z,5.67
2018-05-12T11:12:41.214Z,4.43
2018-05-12T11:15:08.669Z,11.17
2018-05-12T11:17:36.061Z,3.77
2018-05-12T11:20:03.455Z,6.07
2018-05-12T11:22:31.004Z,8.03
2018-05-12T11:24:58.403Z,5.00
2018-05-12T11:27:25.867Z,4.30
2018-05-12T11:29:53.273Z,4.57
2018-05-12T11:32:20.661Z,6.03
2018-05-12T11:34:48.125Z,6.87
2018-05-12T11:37:15.514Z,6.13
2018-05-12T11:39:42.909Z,5.60
2018-05-12T11:42:10.297Z,4.77
2018-05-12T11:44:37.821Z,5.50
2018-05-12T11:47:05.253Z,11.30
2018-05-12T11:49:32.661Z,4.87
2018-05-12T11:52:00.125Z,5.17
2018-05-12T11:54:27.521Z,5.57
2018-05-12T11:56:54.917Z,7.07
2018-05-12T11:59:22.389Z,6.60
2018-05-12T12:01:49.878Z,5.47
2018-05-12T12:04:17.314Z,6.07
2018-05-12T12:06:44.808Z,4.73
2018-05-12T12:09:12.213Z,6.20
2018-05-12T12:11:39.615Z,4.40
2018-05-12T12:14:07.001Z,9.83
2018-05-12T12:16:34.434Z,6.13
2018-05-12T12:19:01.793Z,5.10
2018-05-12T12:21:29.201Z,6.50
2018-05-12T12:23:56.621Z,5.67
2018-05-12T12:26:24.033Z,8.20
2018-05-12T12:28:51.429Z,11.43
2018-05-12T12:31:18.834Z,8.50
2018-05-12T12:33:46.304Z,6.40
2018-05-12T12:36:13.702Z,4.90
2018-05-12T12:38:41.093Z,6.30
2018-05-12T12:41:08.497Z,13.70
2018-05-12T12:43:35.882Z,6.40
2018-05-12T12:46:03.301Z,18.83
2018-05-12T12:48:30.742Z,9.60
2018-05-12T12:50:58.153Z,6.00
2018-05-12T12:53:25.557Z,5.90
2018-05-12T12:55:52.949Z,9.67
2018-05-12T12:58:20.382Z,13.43
2018-05-12T13:00:47.791Z,8.40
2018-05-12T13:03:15.177Z,12.40
2018-05-12T13:05:42.575Z,7.50
2018-05-12T13:08:09.962Z,6.60
2018-05-12T13:10:37.354Z,5.30
2018-05-12T13:13:04.737Z,7.87
2018-05-12T13:15:32.158Z,16.37
2018-05-12T13:17:59.585Z,5.00
2018-05-12T13:20:27.003Z,7.73
2018-05-12T13:22:54.395Z,4.67
2018-05-12T13:25:21.801Z,8.67
2018-05-12T13:27:49.201Z,4.93
2018-05-12T13:30:16.597Z,7.93
2018-05-12T13:32:43.997Z,6.57
2018-05-12T13:35:11.455Z,10.03
2018-05-12T13:37:38.841Z,8.37
2018-05-12T13:40:06.237Z,11.50
2018-05-12T13:42:33.629Z,4.03
2018-05-12T13:45:01.036Z,10.50
2018-05-12T13:47:28.499Z,4.30
2018-05-12T13:49:55.974Z,5.40
2018-05-12T13:52:23.357Z,5.87
2018-05-12T13:54:50.824Z,6.70
2018-05-12T13:57:18.285Z,5.53
2018-05-12T13:59:46.385Z,6.83
2018-05-12T14:02:13.782Z,4.03
2018-05-12T14:04:41.280Z,7.13
2018-05-12T14:07:08.660Z,4.93
2018-05-12T14:09:36.069Z,3.87
2018-05-12T14:12:03.612Z,6.53
2018-05-12T14:14:31.000Z,4.10
2018-05-12T14:16:58.415Z,4.20
2018-05-12T14:19:25.784Z,5.00
2018-05-12T14:21:53.237Z,6.40
2018-05-12T14:24:20.619Z,5.90
2018-05-12T14:26:48.005Z,4.57
2018-05-12T14:29:15.393Z,5.30
2018-05-12T14:31:42.806Z,4.70
2018-05-12T14:34:10.255Z,5.40
2018-05-12T14:36:37.653Z,6.57
2018-05-12T14:39:05.081Z,5.30
2018-05-12T14:41:32.484Z,7.67
2018-05-12T14:43:59.894Z,8.83
2018-05-12T14:46:27.281Z,5.07
2018-05-12T14:48:54.689Z,5.03
2018-05-12T14:51:22.094Z,6.67
2018-05-12T14:53:49.474Z,4.30
2018-05-12T14:56:16.881Z,4.73
2018-05-12T14:58:44.265Z,5.07
2018-05-12T15:01:11.671Z,7.93
2018-05-12T15:03:39.143Z,4.67
2018-05-12T15:06:06.590Z,8.50
2018-05-12T15:08:34.049Z,4.83
2018-05-12T15:11:01.452Z,7.93
2018-05-12T15:13:28.906Z,6.13
2018-05-12T15:15:56.306Z,9.87
2018-05-12T15:18:23.706Z,5.67
2018-05-12T15:20:51.184Z,5.77
2018-05-12T15:23:18.581Z,5.23
2018-05-12T15:25:45.990Z,3.77
2018-05-12T15:28:13.389Z,5.53
2018-05-12T15:30:40.799Z,4.10
2018-05-12T15:33:08.201Z,6.50
2018-05-12T15:35:35.631Z,5.43
2018-05-12T15:38:03.012Z,4.73
2018-05-12T15:40:30.418Z,5.17
2018-05-12T15:42:57.921Z,12.10
2018-05-12T15:45:25.349Z,6.13
2018-05-12T15:47:52.745Z,6.37
2018-05-12T15:50:20.156Z,5.77
2018-05-12T15:52:47.645Z,6.23
2018-05-12T15:55:15.077Z,6.53
2018-05-12T15:57:42.588Z,6.13
2018-05-12T16:00:09.977Z,5.50
2018-05-12T16:02:37.479Z,7.50
2018-05-12T16:05:04.871Z,7.03
2018-05-12T16:07:32.278Z,6.67
2018-05-12T16:09:59.685Z,8.60
2018-05-12T16:12:27.098Z,7.73
2018-05-12T16:14:54.485Z,11.80
2018-05-12T16:17:21.906Z,6.97
2018-05-12T16:19:49.357Z,9.80
2018-05-12T16:22:16.752Z,8.30
2018-05-12T16:24:44.183Z,8.60
2018-05-12T16:27:11.592Z,7.40
2018-05-12T16:29:39.081Z,9.07
2018-05-12T16:32:06.540Z,9.73
2018-05-12T16:34:33.997Z,9.20
2018-05-12T16:37:01.442Z,10.73
2018-05-12T16:39:28.829Z,8.20
2018-05-12T16:41:56.220Z,9.77
2018-05-12T16:44:23.615Z,13.47
2018-05-12T16:46:51.085Z,13.93
2018-05-12T16:49:18.545Z,8.60
2018-05-12T16:51:45.956Z,10.43
2018-05-12T16:54:13.357Z,10.30
2018-05-12T16:56:40.741Z,8.77
2018-05-12T16:59:08.188Z,7.60
2018-05-12T17:01:35.629Z,9.60
2018-05-12T17:04:03.025Z,9.30
2018-05-12T17:06:30.442Z,8.00
2018-05-12T17:08:57.889Z,7.90
2018-05-12T17:11:25.301Z,8.00
2018-05-12T17:13:52.734Z,7.20
2018-05-12T17:16:20.128Z,9.30
2018-05-12T17:18:47.519Z,8.40
2018-05-12T17:21:14.994Z,12.37
2018-05-12T17:23:42.377Z,14.40
2018-05-12T17:26:09.792Z,6.07
2018-05-12T17:28:37.249Z,14.83
2018-05-12T17:31:04.649Z,7.43
2018-05-12T17:33:32.062Z,7.33
2018-05-12T17:35:59.458Z,7.93
2018-05-12T17:38:26.841Z,7.33
2018-05-12T17:40:54.328Z,8.37
2018-05-12T17:43:21.790Z,8.50
2018-05-12T17:45:49.247Z,12.43
2018-05-12T17:48:16.641Z,8.63
2018-05-12T17:50:44.029Z,14.63
2018-05-12T17:53:11.678Z,9.80
2018-05-12T17:55:39.081Z,8.00
2018-05-12T17:58:06.547Z,7.50
2018-05-12T18:00:33.943Z,7.53
2018-05-12T18:03:01.338Z,8.77
2018-05-12T18:05:28.801Z,6.80
2018-05-12T18:07:56.201Z,12.50
2018-05-12T18:10:23.633Z,12.80
2018-05-12T18:12:51.054Z,7.73
2018-05-12T18:15:18.453Z,7.90
2018-05-12T18:17:45.879Z,7.73
2018-05-12T18:20:13.283Z,7.50
2018-05-12T18:22:40.701Z,7.60
2018-05-12T18:25:08.157Z,8.33
2018-05-12T18:27:35.549Z,8.23
2018-05-12T18:30:02.961Z,7.40
2018-05-12T18:32:30.453Z,7.80
2018-05-12T18:34:57.837Z,9.73
2018-05-12T18:37:25.266Z,9.73
2018-05-12T18:39:52.649Z,7.40
2018-05-12T18:42:20.045Z,7.23
2018-05-12T18:44:47.425Z,8.07
2018-05-12T18:47:14.865Z,7.43
2018-05-12T18:49:42.269Z,7.67
2018-05-12T18:52:09.677Z,8.10
2018-05-12T18:54:37.073Z,8.50
2018-05-12T18:57:04.481Z,7.90
2018-05-12T18:59:31.940Z,8.20
2018-05-12T19:01:59.342Z,9.10
2018-05-12T19:04:26.730Z,9.50
2018-05-12T19:06:54.218Z,11.13
2018-05-12T19:09:21.675Z,7.63
2018-05-12T19:11:49.180Z,13.40
2018-05-12T19:14:16.715Z,7.47
2018-05-12T19:16:44.174Z,8.50
2018-05-12T19:19:11.570Z,8.93
2018-05-12T19:21:38.963Z,11.10
2018-05-12T19:24:06.350Z,8.50
2018-05-12T19:26:33.773Z,7.70
2018-05-12T19:29:01.309Z,7.73
2018-05-12T19:31:28.736Z,8.40
2018-05-12T19:33:56.255Z,7.80
2018-05-12T19:36:23.658Z,7.63
2018-05-12T19:38:51.081Z,7.77
2018-05-12T19:41:18.525Z,8.73
2018-05-12T19:43:46.065Z,11.40
2018-05-12T19:46:13.451Z,8.27
2018-05-12T19:48:40.905Z,8.03
2018-05-12T19:51:08.286Z,7.33
2018-05-12T19:53:35.701Z,8.63
2018-05-12T19:56:03.157Z,7.57
2018-05-12T19:58:30.604Z,8.00
2018-05-12T20:00:58.015Z,6.80
2018-05-12T20:03:25.405Z,8.70
2018-05-12T20:05:52.882Z,7.70
2018-05-12T20:08:20.357Z,7.40
2018-05-12T20:10:47.797Z,8.27
2018-05-12T20:13:15.341Z,7.10
2018-05-12T20:15:42.664Z,7.87
2018-05-12T20:18:10.079Z,7.60
2018-05-12T20:20:37.494Z,6.73
2018-05-12T20:23:05.043Z,15.77
2018-05-12T20:25:32.450Z,7.33
2018-05-12T20:27:59.908Z,6.37
2018-05-12T20:30:27.360Z,6.47
2018-05-12T20:32:54.829Z,6.63
2018-05-12T20:35:22.244Z,6.53
2018-05-12T20:37:49.745Z,7.80
2018-05-12T20:40:17.134Z,6.87
2018-05-12T20:42:44.624Z,7.07
2018-05-12T20:45:12.015Z,6.80
2018-05-12T20:47:39.413Z,6.90
2018-05-12T20:50:06.811Z,9.50
2018-05-12T20:52:34.233Z,6.13
2018-05-12T20:55:01.630Z,7.83
2018-05-12T20:57:29.117Z,6.67
2018-05-12T20:59:56.655Z,7.33
2018-05-12T21:02:24.052Z,6.30
2018-05-12T21:04:51.448Z,7.60
2018-05-12T21:07:18.854Z,7.57
2018-05-12T21:09:46.269Z,11.13
2018-05-12T21:12:13.668Z,8.60
2018-05-12T21:14:41.086Z,7.77
2018-05-12T21:17:08.563Z,6.80
2018-05-12T21:19:36.006Z,8.33
2018-05-12T21:22:03.393Z,8.53
2018-05-12T21:24:30.808Z,6.23
2018-05-12T21:26:59.005Z,7.13
2018-05-12T21:29:26.416Z,7.40
2018-05-12T21:31:53.825Z,7.83
2018-05-12T21:34:21.251Z,7.63
2018-05-12T21:36:48.655Z,12.07
2018-05-12T21:39:16.037Z,8.73
2018-05-12T21:41:43.427Z,9.50
2018-05-12T21:44:10.829Z,9.37
2018-05-12T21:46:38.250Z,11.43
2018-05-12T21:49:05.696Z,9.53
2018-05-12T21:51:33.092Z,10.03
2018-05-12T21:54:00.586Z,10.00
2018-05-12T21:56:28.005Z,11.17
2018-05-12T21:58:55.425Z,10.60
2018-05-12T22:01:22.801Z,8.30
2018-05-12T22:03:50.210Z,7.93
2018-05-12T22:06:17.617Z,9.03
2018-05-12T22:08:45.005Z,8.50
2018-05-12T22:11:12.467Z,8.50
2018-05-12T22:13:39.926Z,8.53
2018-05-12T22:16:07.320Z,9.93
2018-05-12T22:18:34.776Z,29.37
2018-05-12T22:21:02.116Z,10.07
2018-05-12T22:23:29.521Z,10.00
2018-05-12T22:25:56.904Z,12.10
2018-05-12T22:28:24.406Z,9.67
2018-05-12T22:30:51.857Z,11.50
2018-05-12T22:33:19.256Z,11.77
2018-05-12T22:35:46.680Z,11.30
2018-05-12T22:38:14.073Z,11.37
2018-05-12T22:40:41.472Z,12.83
2018-05-12T22:43:08.955Z,16.90
2018-05-12T22:45:36.474Z,11.57
2018-05-12T22:48:03.881Z,14.07
2018-05-12T22:50:31.532Z,14.53
2018-05-12T22:52:59.017Z,13.40
2018-05-12T22:55:26.452Z,14.60
2018-05-12T22:57:53.901Z,15.70
2018-05-12T23:00:22.078Z,13.60
2018-05-12T23:02:49.469Z,14.50
2018-05-12T23:05:16.860Z,15.60
2018-05-12T23:07:44.253Z,16.50
2018-05-12T23:10:11.689Z,28.13
2018-05-12T23:12:39.058Z,17.37
2018-05-12T23:15:06.464Z,18.03
2018-05-12T23:17:33.898Z,21.60
2018-05-12T23:20:01.372Z,24.83
2018-05-12T23:22:28.756Z,20.70
2018-05-12T23:24:56.343Z,19.77
2018-05-12T23:27:23.697Z,23.53
2018-05-12T23:29:51.105Z,20.90
2018-05-12T23:32:18.594Z,20.43
2018-05-12T23:34:46.082Z,23.87
2018-05-12T23:37:14.438Z,21.33
2018-05-12T23:39:41.922Z,18.53
2018-05-12T23:42:09.329Z,20.23
2018-05-12T23:44:36.741Z,22.50
2018-05-12T23:47:04.153Z,27.53
2018-05-12T23:49:31.629Z,23.10
2018-05-12T23:51:59.121Z,22.50
2018-05-12T23:54:26.979Z,25.27
2018-05-12T23:56:54.440Z,24.13
2018-05-12T23:59:21.841Z,22.07
